Time;durP1;ratioP1;P1;durP2;ratioP2;P2;SDS_P1;SDS_P2;PMS_P1;PMS_P2;Temp;Humidity;BMP_temperature;BMP_pressure;BME280_temperature;BME280_humidity;BME280_pressure;Samples;Min_cycle;Max_cycle;Signal;HPM_P1;HPM_P2
2022/12/28 00:01:27;;;;;;;7.32;3.15;;;;;;;7.49;78.75;101423.56;3568360;40;20388;-64
2022/12/28 00:03:54;;;;;;;5.80;3.38;;;;;;;7.54;78.19;101422.44;3569307;40;20328;-63
2022/12/28 00:06:23;;;;;;;6.25;3.92;;;;;;;7.57;78.16;101425.00;3567558;40;20065;-63
2022/12/28 00:08:53;;;;;;;6.28;3.83;;;;;;;7.32;78.27;101365.38;3570725;40;20130;-64
2022/12/28 00:11:21;;;;;;;5.18;3.30;;;;;;;7.59;77.99;101403.53;3569477;40;21409;-63
2022/12/28 00:13:46;;;;;;;5.95;3.20;;;;;;;7.63;77.67;101399.81;3569676;40;20483;-64
2022/12/28 00:16:38;;;;;;;5.80;3.03;;;;;;;7.62;77.78;101392.72;3567069;40;20068;-63
2022/12/28 00:19:11;;;;;;;6.20;3.30;;;;;;;7.64;77.90;101366.75;3567626;40;20061;-63
2022/12/28 00:21:37;;;;;;;8.63;2.88;;;;;;;7.64;77.41;101369.44;3567555;40;20057;-63
2022/12/28 00:24:03;;;;;;;4.65;2.83;;;;;;;7.63;77.23;101357.84;3567404;40;20049;-64
2022/12/28 00:26:33;;;;;;;5.03;2.75;;;;;;;7.67;77.74;101342.53;3568932;40;20080;-63
2022/12/28 00:29:00;;;;;;;5.90;2.90;;;;;;;7.65;77.24;101334.59;3571651;40;20052;-64
2022/12/28 00:31:27;;;;;;;5.60;3.03;;;;;;;7.65;77.18;101339.09;3565058;40;20105;-63
2022/12/28 00:33:52;;;;;;;5.95;2.92;;;;;;;7.67;77.64;101327.38;3566604;40;20150;-64
2022/12/28 00:36:18;;;;;;;5.10;3.13;;;;;;;7.71;77.44;101324.56;3566103;40;20382;-64
2022/12/28 00:38:44;;;;;;;5.47;3.22;;;;;;;7.73;77.19;101330.72;3569238;40;20214;-63
2022/12/28 00:41:10;;;;;;;4.88;3.05;;;;;;;7.71;76.87;101325.44;3567531;40;20064;-63
2022/12/28 00:43:36;;;;;;;6.93;3.35;;;;;;;7.75;77.15;101332.41;3566112;40;20049;-63
2022/12/28 00:46:03;;;;;;;5.57;3.13;;;;;;;7.77;77.41;101330.53;3566554;40;20430;-63
2022/12/28 00:48:29;;;;;;;7.65;3.58;;;;;;;7.81;77.19;101325.94;3562856;40;20053;-63
2022/12/28 00:51:18;;;;;;;4.28;3.00;;;;;;;7.83;77.14;101322.25;3566147;40;20049;-63
2022/12/28 00:53:44;;;;;;;5.38;3.08;;;;;;;7.82;76.89;101298.22;3566631;40;20045;-63
2022/12/28 00:56:19;;;;;;;4.65;3.10;;;;;;;7.87;76.39;101309.63;3567739;40;20049;-63
2022/12/28 00:58:46;;;;;;;7.55;3.38;;;;;;;7.85;76.23;101295.41;3568208;40;20497;-63
2022/12/28 01:01:22;;;;;;;6.85;3.17;;;;;;;7.89;76.60;101295.19;3566615;40;20048;-63
2022/12/28 01:03:48;;;;;;;7.63;3.60;;;;;;;7.89;76.36;101299.69;3570848;40;20061;-63
2022/12/28 01:06:18;;;;;;;7.57;3.60;;;;;;;7.91;76.53;101292.47;3567669;40;20443;-64
2022/12/28 01:08:44;;;;;;;6.57;3.45;;;;;;;7.94;75.78;101281.63;3570391;40;20063;-63
2022/12/28 01:11:24;;;;;;;6.30;3.30;;;;;;;7.97;75.54;101281.50;3567422;40;20060;-63
2022/12/28 01:13:52;;;;;;;6.32;3.40;;;;;;;7.97;75.63;101281.50;3566824;40;20057;-64
2022/12/28 01:16:25;;;;;;;5.97;3.47;;;;;;;7.97;76.34;101281.50;3566138;40;20163;-63
2022/12/28 01:18:56;;;;;;;7.93;3.17;;;;;;;7.98;76.35;101279.69;3565449;40;20057;-63
2022/12/28 01:21:27;;;;;;;6.50;3.60;;;;;;;7.92;75.49;101254.06;3564993;40;20064;-63
2022/12/28 01:23:58;;;;;;;4.95;3.47;;;;;;;8.01;76.14;101275.06;3568113;40;20068;-63
2022/12/28 01:26:25;;;;;;;5.75;3.20;;;;;;;8.03;76.16;101270.53;3566149;40;20057;-64
2022/12/28 01:28:51;;;;;;;6.97;3.42;;;;;;;8.04;75.69;101258.88;3566973;40;20150;-64
2022/12/28 01:31:20;;;;;;;6.60;3.60;;;;;;;8.01;75.58;101250.97;3568014;40;20064;-64
2022/12/28 01:33:47;;;;;;;5.60;3.40;;;;;;;8.07;75.84;101240.00;3565970;40;20063;-64
2022/12/28 01:36:20;;;;;;;7.47;3.35;;;;;;;8.07;75.94;101245.34;3567885;40;20068;-63
2022/12/28 01:38:50;;;;;;;9.07;3.10;;;;;;;8.12;75.33;101253.19;3567948;40;20049;-64
2022/12/28 01:41:18;;;;;;;6.10;3.00;;;;;;;8.09;75.32;101237.25;3568028;40;20053;-63
2022/12/28 01:44:09;;;;;;;7.30;3.47;;;;;;;8.18;75.25;101241.31;3569067;40;20108;-64
2022/12/28 01:46:50;;;;;;;5.60;3.20;;;;;;;8.23;75.01;101233.94;3565984;40;20052;-64
2022/12/28 01:49:40;;;;;;;4.38;3.10;;;;;;;8.20;75.92;101234.94;3567059;40;20044;-64
2022/12/28 01:52:24;;;;;;;4.85;3.20;;;;;;;8.22;75.64;101234.91;3564969;40;20196;-64
2022/12/28 01:55:04;;;;;;;5.03;3.17;;;;;;;8.28;75.82;101221.22;3567770;40;20087;-63
2022/12/28 01:57:39;;;;;;;4.30;2.90;;;;;;;8.29;75.12;101226.50;3571834;40;20056;-64
2022/12/28 02:00:14;;;;;;;5.45;3.30;;;;;;;8.31;75.52;101218.41;3572082;40;20108;-64
2022/12/28 02:03:12;;;;;;;4.38;2.72;;;;;;;8.26;74.77;101196.31;3568428;40;20059;-63
2022/12/28 02:05:48;;;;;;;5.35;3.00;;;;;;;8.36;74.77;101193.13;3570067;40;20057;-64
2022/12/28 02:08:28;;;;;;;4.70;3.03;;;;;;;8.42;75.03;101189.34;3569046;40;20126;-64
2022/12/28 02:10:55;;;;;;;5.97;3.08;;;;;;;8.45;75.13;101183.84;3568139;40;20056;-64
2022/12/28 02:13:24;;;;;;;5.22;3.13;;;;;;;8.44;74.67;101178.56;3566299;40;20309;-64
2022/12/28 02:15:50;;;;;;;5.88;2.72;;;;;;;8.48;75.13;101175.66;3564637;40;20048;-63
2022/12/28 02:18:20;;;;;;;5.43;3.05;;;;;;;8.49;74.54;101160.44;3568749;40;20368;-63
2022/12/28 02:21:08;;;;;;;4.07;2.88;;;;;;;8.52;74.44;101158.47;3568453;40;20052;-64
2022/12/28 02:23:39;;;;;;;3.85;2.63;;;;;;;8.53;74.85;101149.53;3564772;40;20142;-63
2022/12/28 02:26:50;;;;;;;4.90;2.90;;;;;;;8.54;74.92;101147.69;3567727;40;20126;-63
2022/12/28 02:29:33;;;;;;;4.07;2.60;;;;;;;8.51;75.45;101142.50;3551884;40;20089;-64
2022/12/28 02:32:51;;;;;;;4.28;2.63;;;;;;;8.50;76.98;101133.59;3566671;40;20126;-63
2022/12/28 02:35:47;;;;;;;6.75;3.08;;;;;;;8.47;77.16;101112.31;3567332;40;20075;-64
2022/12/28 02:38:57;;;;;;;5.45;3.15;;;;;;;8.49;76.96;101109.53;3564499;40;20410;-64
2022/12/28 02:41:25;;;;;;;7.18;3.25;;;;;;;8.48;77.79;101114.03;3563609;40;20104;-63
2022/12/28 02:43:53;;;;;;;5.22;3.10;;;;;;;8.47;78.13;101114.97;3568800;40;20065;-63
2022/12/28 02:52:33;;;;;;;7.57;3.33;;;;;;;8.36;80.69;101111.91;3566148;40;20088;-64
2022/12/28 02:58:38;;;;;;;;;;;;;;;8.32;80.90;101094.25;3565172;40;20051;-63
2022/12/28 03:01:19;;;;;;;5.70;3.45;;;;;;;8.31;81.41;101093.38;3568328;40;19966;-63
2022/12/28 03:04:05;;;;;;;5.72;3.35;;;;;;;8.27;81.85;101089.09;3564732;40;20053;-63
2022/12/28 03:09:50;;;;;;;5.97;3.85;;;;;;;8.24;83.28;101081.22;3564942;40;20126;-62
2022/12/28 03:13:00;;;;;;;7.18;3.65;;;;;;;8.20;83.71;101092.16;3566369;40;20059;-64
2022/12/28 03:15:36;;;;;;;6.43;4.00;;;;;;;8.13;84.43;101063.00;3568743;40;20072;-64
2022/12/28 03:32:28;;;;;;;5.35;4.18;;;;;;;8.14;86.02;101056.69;3568384;40;20006;-63
2022/12/28 03:34:55;;;;;;;5.15;4.10;;;;;;;8.14;86.38;101055.81;3566956;40;20060;-62
2022/12/28 03:37:52;;;;;;;8.77;4.20;;;;;;;8.04;86.40;101031.31;3568827;40;20071;-66
2022/12/28 03:40:46;;;;;;;4.93;4.30;;;;;;;8.19;86.18;101050.25;3567007;40;20057;-64
2022/12/28 03:43:43;;;;;;;9.48;4.25;;;;;;;8.18;87.15;101060.09;3566987;40;20052;-64
2022/12/28 03:46:17;;;;;;;6.13;4.45;;;;;;;8.22;87.09;101050.97;3566344;40;20339;-65
2022/12/28 03:48:45;;;;;;;7.15;4.50;;;;;;;8.08;87.28;101030.22;3568111;40;20053;-65
2022/12/28 03:51:18;;;;;;;4.82;4.28;;;;;;;8.09;87.25;101021.25;3569132;40;20056;-64
2022/12/28 03:53:47;;;;;;;5.43;4.50;;;;;;;8.26;87.79;101051.69;3564427;40;20072;-65
2022/12/28 03:56:25;;;;;;;6.82;4.00;;;;;;;8.29;87.46;101030.97;3564655;40;20069;-64
2022/12/28 03:58:51;;;;;;;5.35;4.13;;;;;;;8.33;87.61;101042.41;3568112;40;20394;-64
2022/12/28 04:01:19;;;;;;;6.63;4.70;;;;;;;8.32;87.32;101035.34;3568392;40;20053;-64
2022/12/28 04:03:45;;;;;;;5.25;4.65;;;;;;;8.36;87.48;101036.91;3567266;40;20060;-64
2022/12/28 04:06:17;;;;;;;4.82;4.40;;;;;;;8.36;87.56;101015.47;3564134;40;20092;-64
2022/12/28 04:08:45;;;;;;;5.82;4.13;;;;;;;8.42;87.25;101025.06;3566860;40;20060;-64
2022/12/28 04:11:12;;;;;;;7.50;4.38;;;;;;;8.47;86.79;101028.34;3565719;40;20056;-62
2022/12/28 04:13:38;;;;;;;6.68;3.65;;;;;;;8.32;86.75;100993.34;3565586;40;20061;-62
2022/12/28 04:16:12;;;;;;;5.18;3.88;;;;;;;8.55;86.73;101016.31;3567118;40;20384;-62
2022/12/28 04:18:39;;;;;;;7.10;3.70;;;;;;;8.62;86.69;101016.00;3568343;40;20037;-62
2022/12/28 04:21:05;;;;;;;5.78;3.60;;;;;;;8.62;85.84;101022.22;3568321;40;20060;-62
2022/12/28 04:23:31;;;;;;;6.93;3.92;;;;;;;8.68;85.60;101029.09;3566430;40;20114;-61
2022/12/28 04:26:06;;;;;;;6.63;3.90;;;;;;;8.73;85.46;101016.34;3567879;40;20079;-62
2022/12/28 04:28:33;;;;;;;5.35;3.58;;;;;;;8.64;85.48;101004.28;3564981;40;20363;-62
2022/12/28 04:31:02;;;;;;;6.32;3.53;;;;;;;8.79;86.04;101024.06;3567610;40;20061;-62
2022/12/28 04:33:34;;;;;;;6.28;3.40;;;;;;;8.84;85.09;101027.38;3564422;40;20443;-62
2022/12/28 04:36:06;;;;;;;6.10;3.10;;;;;;;8.88;85.26;101031.66;3568241;40;20056;-62
2022/12/28 04:38:33;;;;;;;7.55;3.08;;;;;;;8.93;85.40;101026.91;3568324;40;20387;-61
2022/12/28 04:40:58;;;;;;;6.35;3.33;;;;;;;8.94;84.56;101017.91;3566354;40;20056;-61
2022/12/28 04:43:24;;;;;;;6.90;3.45;;;;;;;8.96;84.61;101018.69;3570009;40;21973;-62
2022/12/28 04:46:03;;;;;;;7.60;3.72;;;;;;;8.95;84.87;101019.66;3570174;40;20060;-63
2022/12/28 04:48:29;;;;;;;4.82;3.35;;;;;;;8.98;85.22;101024.84;3568165;40;20053;-63
2022/12/28 04:50:56;;;;;;;6.85;3.40;;;;;;;8.95;85.70;101013.44;3570220;40;20080;-62
2022/12/28 04:53:22;;;;;;;5.90;3.13;;;;;;;8.92;85.43;101008.22;3568941;40;20053;-63
2022/12/28 04:55:49;;;;;;;8.55;3.90;;;;;;;8.99;86.23;101023.91;3566927;40;20059;-62
2022/12/28 04:58:15;;;;;;;4.57;3.33;;;;;;;8.81;85.82;100990.00;3568137;40;20068;-62
2022/12/28 05:00:41;;;;;;;4.35;3.70;;;;;;;8.98;85.82;101016.81;3569642;40;20056;-62
2022/12/28 05:03:07;;;;;;;5.25;3.63;;;;;;;8.97;86.13;101012.38;3567448;40;20085;-62
2022/12/28 05:05:33;;;;;;;5.53;3.85;;;;;;;8.97;86.81;101011.50;3567106;40;20061;-62
2022/12/28 05:08:00;;;;;;;4.70;4.03;;;;;;;8.96;86.68;101013.34;3565000;40;20191;-63
2022/12/28 05:10:27;;;;;;;6.38;3.85;;;;;;;8.97;87.02;101017.75;3565725;40;20351;-63
2022/12/28 05:12:55;;;;;;;5.05;3.55;;;;;;;8.94;86.96;101006.31;3567968;40;20053;-63
2022/12/28 05:15:21;;;;;;;5.40;3.45;;;;;;;8.98;87.52;101014.13;3565429;40;20120;-63
2022/12/28 05:17:47;;;;;;;5.65;3.60;;;;;;;8.98;87.08;101008.78;3566804;40;20059;-63
2022/12/28 05:20:12;;;;;;;6.32;4.07;;;;;;;8.98;87.78;101008.78;3565859;40;20073;-64
2022/12/28 05:22:38;;;;;;;8.18;3.97;;;;;;;8.97;87.99;101007.00;3568772;40;20355;-64
2022/12/28 05:25:04;;;;;;;6.38;3.20;;;;;;;8.95;87.48;101005.38;3564975;40;20320;-63
2022/12/28 05:27:29;;;;;;;8.65;3.90;;;;;;;8.95;88.27;101006.25;3566989;40;20065;-64
2022/12/28 05:29:55;;;;;;;7.38;4.18;;;;;;;8.98;88.61;101008.78;3565865;40;20103;-64
2022/12/28 05:32:21;;;;;;;8.15;4.32;;;;;;;8.96;88.84;101009.78;3564838;40;20064;-65
2022/12/28 05:34:46;;;;;;;6.15;3.42;;;;;;;8.98;88.95;101002.53;3567316;40;20058;-65
2022/12/28 05:37:12;;;;;;;9.05;4.38;;;;;;;9.00;88.64;100995.28;3566217;40;20045;-64
2022/12/28 05:39:37;;;;;;;4.20;3.25;;;;;;;8.97;89.03;101000.78;3566518;40;20372;-61
2022/12/28 05:42:04;;;;;;;7.07;3.50;;;;;;;8.98;88.67;101005.22;3567232;40;20057;-62
2022/12/28 05:44:30;;;;;;;6.93;3.95;;;;;;;8.76;88.91;100966.13;3567912;40;20065;-62
2022/12/28 05:46:56;;;;;;;6.57;3.83;;;;;;;8.99;89.10;100996.22;3561234;40;20114;-61
2022/12/28 05:49:22;;;;;;;4.15;3.10;;;;;;;9.00;89.13;101006.84;3563600;40;20049;-61
2022/12/28 05:51:50;;;;;;;5.45;3.30;;;;;;;9.05;89.66;100996.78;3564463;40;20336;-63
2022/12/28 05:54:16;;;;;;;6.03;3.38;;;;;;;9.05;89.34;100994.09;3564503;40;20431;-63
2022/12/28 05:56:42;;;;;;;4.15;3.53;;;;;;;9.06;89.81;101001.16;3565048;40;20095;-63
2022/12/28 05:59:10;;;;;;;5.03;3.63;;;;;;;9.07;89.94;100992.19;3564739;40;20065;-62
2022/12/28 06:01:39;;;;;;;6.65;3.55;;;;;;;9.07;89.28;101002.94;3563206;40;20048;-61
2022/12/28 06:04:13;;;;;;;4.28;3.42;;;;;;;9.07;89.68;100991.34;3563631;40;20324;-62
2022/12/28 06:06:39;;;;;;;3.70;3.00;;;;;;;9.08;89.13;100985.03;3567267;40;20065;-63
2022/12/28 06:09:04;;;;;;;7.10;3.67;;;;;;;9.09;89.78;100977.84;3564890;40;20294;-62
2022/12/28 06:11:31;;;;;;;4.03;3.38;;;;;;;9.11;89.47;100976.81;3564581;40;20049;-61
2022/12/28 06:13:58;;;;;;;7.68;5.57;;;;;;;9.12;89.56;100966.94;3564184;40;20067;-61
2022/12/28 06:16:28;;;;;;;5.78;3.25;;;;;;;9.09;89.30;100964.44;3565025;40;20057;-62
2022/12/28 06:18:54;;;;;;;3.67;3.10;;;;;;;9.11;89.47;100965.22;3566796;40;20053;-62
2022/12/28 06:21:32;;;;;;;4.35;3.40;;;;;;;9.13;89.53;100960.63;3566270;40;20061;-63
2022/12/28 06:24:01;;;;;;;3.88;2.60;;;;;;;9.16;89.81;100955.09;3565822;40;20096;-61
2022/12/28 06:26:31;;;;;;;5.45;3.33;;;;;;;9.11;90.28;100958.03;3563552;40;20454;-62
2022/12/28 06:28:58;;;;;;;3.67;2.80;;;;;;;9.16;90.07;100957.78;3564653;40;20053;-61
2022/12/28 06:31:30;;;;;;;4.78;3.22;;;;;;;9.15;89.72;100940.81;3565492;40;20118;-62
2022/12/28 06:34:01;;;;;;;3.10;2.80;;;;;;;9.16;89.91;100947.06;3564645;40;20412;-62
2022/12/28 06:36:37;;;;;;;5.65;2.95;;;;;;;9.01;89.96;100914.78;3562990;40;20088;-62
2022/12/28 06:39:07;;;;;;;4.47;3.20;;;;;;;9.11;90.46;100933.03;3564143;40;20097;-62
2022/12/28 06:41:33;;;;;;;3.70;3.05;;;;;;;9.15;89.72;100938.16;3563433;40;20052;-61
2022/12/28 06:43:59;;;;;;;5.43;3.50;;;;;;;9.01;89.98;100909.41;3566661;40;20048;-62
2022/12/28 06:46:29;;;;;;;3.72;3.13;;;;;;;9.01;90.18;100898.69;3565064;40;20045;-61
2022/12/28 06:48:55;;;;;;;4.70;2.55;;;;;;;9.19;89.80;100931.66;3563328;40;20061;-62
2022/12/28 06:51:25;;;;;;;5.88;3.55;;;;;;;8.59;89.92;100835.72;3564555;40;20388;-61
2022/12/28 06:53:53;;;;;;;4.28;3.20;;;;;;;9.20;89.86;100928.03;3566362;40;20378;-62
2022/12/28 06:56:29;;;;;;;4.68;3.30;;;;;;;9.03;90.31;100899.44;3564447;40;20069;-62
2022/12/28 06:58:56;;;;;;;3.90;3.30;;;;;;;8.96;89.90;100876.59;3564710;40;20363;-61
2022/12/28 07:01:29;;;;;;;6.22;3.42;;;;;;;9.26;90.58;100924.13;3566137;40;20052;-61
2022/12/28 07:03:57;;;;;;;5.22;3.25;;;;;;;9.25;89.84;100923.28;3563828;40;20122;-61
2022/12/28 07:06:27;;;;;;;5.72;3.17;;;;;;;9.27;89.76;100929.44;3564470;40;20285;-61
2022/12/28 07:09:00;;;;;;;4.07;3.10;;;;;;;9.29;90.26;100915.91;3566086;40;20087;-61
2022/12/28 07:11:27;;;;;;;6.25;3.20;;;;;;;9.28;90.17;100922.25;3563079;40;20056;-61
2022/12/28 07:13:53;;;;;;;4.75;3.47;;;;;;;9.33;90.35;100922.88;3565368;40;20118;-61
2022/12/28 07:16:21;;;;;;;3.80;2.80;;;;;;;9.34;90.22;100913.00;3553454;40;20061;-61
2022/12/28 07:18:48;;;;;;;2.90;2.63;;;;;;;9.35;90.09;100914.72;3563307;40;20064;-60
2022/12/28 07:21:24;;;;;;;3.05;2.70;;;;;;;9.29;89.70;100908.78;3565498;40;20075;-61
2022/12/28 07:23:53;;;;;;;2.97;2.35;;;;;;;9.25;89.56;100895.59;3562112;40;20431;-61
2022/12/28 07:26:27;;;;;;;3.10;2.80;;;;;;;9.39;89.56;100917.16;3562580;40;20065;-61
2022/12/28 07:28:56;;;;;;;5.88;3.10;;;;;;;9.38;89.45;100910.06;3564593;40;20068;-61
2022/12/28 07:31:32;;;;;;;3.10;2.70;;;;;;;9.40;90.22;100912.66;3565060;40;20049;-61
2022/12/28 07:33:59;;;;;;;3.75;2.70;;;;;;;9.42;89.13;100921.47;3566134;40;20305;-61
2022/12/28 07:36:28;;;;;;;3.33;2.55;;;;;;;9.42;89.20;100917.00;3565914;40;20116;-61
2022/12/28 07:38:55;;;;;;;3.75;2.60;;;;;;;9.44;89.83;100915.06;3562657;40;20102;-61
2022/12/28 07:41:27;;;;;;;3.03;2.28;;;;;;;9.41;89.38;100909.88;3564810;40;20232;-61
2022/12/28 07:43:53;;;;;;;2.55;2.20;;;;;;;9.46;88.69;100912.31;3564396;40;20069;-61
2022/12/28 07:46:23;;;;;;;4.13;2.55;;;;;;;9.46;89.37;100909.66;3562032;40;20067;-61
2022/12/28 07:48:51;;;;;;;2.78;2.50;;;;;;;9.47;89.23;100920.28;3564757;40;20064;-60
2022/12/28 07:51:24;;;;;;;6.30;2.95;;;;;;;9.44;89.25;100928.50;3566095;40;20060;-61
2022/12/28 07:53:52;;;;;;;6.15;2.55;;;;;;;9.46;89.60;100913.19;3564101;40;20299;-61
2022/12/28 07:56:19;;;;;;;3.25;2.78;;;;;;;9.48;88.96;100924.72;3566617;40;20056;-61
2022/12/28 07:58:50;;;;;;;4.80;2.22;;;;;;;9.46;88.96;100913.19;3563906;40;20049;-61
2022/12/28 08:01:21;;;;;;;4.15;2.83;;;;;;;9.49;88.83;100923.75;3566766;40;20068;-61
2022/12/28 08:03:47;;;;;;;2.60;2.40;;;;;;;9.39;88.83;100892.16;3559342;40;20645;-61
2022/12/28 08:06:18;;;;;;;3.35;2.50;;;;;;;9.53;89.33;100914.56;3565148;40;20067;-61
2022/12/28 08:08:46;;;;;;;3.70;2.72;;;;;;;9.43;88.73;100894.56;3568053;40;20059;-62
2022/12/28 08:11:21;;;;;;;3.35;2.63;;;;;;;9.58;89.26;100918.81;3565737;40;20076;-61
2022/12/28 08:13:50;;;;;;;5.95;2.72;;;;;;;9.58;89.35;100916.13;3564983;40;20057;-61
2022/12/28 08:16:20;;;;;;;4.35;2.70;;;;;;;9.59;89.10;100918.72;3564270;40;20076;-63
2022/12/28 08:18:48;;;;;;;5.15;2.70;;;;;;;9.60;88.34;100917.78;3567118;40;20134;-61
2022/12/28 08:21:30;;;;;;;3.88;3.00;;;;;;;9.62;88.83;100933.81;3567068;40;20084;-62
2022/12/28 08:23:57;;;;;;;6.15;2.85;;;;;;;9.62;88.28;100917.69;3567720;40;20316;-63
2022/12/28 08:26:30;;;;;;;9.35;3.17;;;;;;;9.64;88.67;100916.66;3566025;40;20049;-63
2022/12/28 08:28:59;;;;;;;5.00;3.05;;;;;;;9.66;88.02;100913.88;3566722;40;21033;-63
2022/12/28 08:31:34;;;;;;;6.50;2.88;;;;;;;9.65;88.03;100921.06;3569292;40;20056;-63
2022/12/28 08:34:02;;;;;;;3.92;2.75;;;;;;;9.67;88.54;100916.50;3565518;40;20057;-63
2022/12/28 08:36:29;;;;;;;5.53;2.60;;;;;;;9.65;88.69;100917.53;3567630;40;20447;-63
2022/12/28 08:38:56;;;;;;;6.05;3.15;;;;;;;9.45;88.49;100883.75;3565859;40;20068;-64
2022/12/28 08:41:25;;;;;;;5.30;2.85;;;;;;;9.72;88.46;100918.91;3566737;40;20056;-64
2022/12/28 08:43:53;;;;;;;6.68;2.75;;;;;;;9.70;87.80;100916.28;3566336;40;20056;-64
2022/12/28 08:46:23;;;;;;;6.88;3.35;;;;;;;9.71;87.88;100903.75;3567270;40;20089;-64
2022/12/28 08:48:51;;;;;;;5.47;3.30;;;;;;;9.72;88.63;100908.16;3565711;40;20065;-63
2022/12/28 08:51:23;;;;;;;6.53;3.28;;;;;;;9.73;87.81;100915.25;3565258;40;20080;-64
2022/12/28 08:53:49;;;;;;;8.68;3.17;;;;;;;9.74;88.60;100911.63;3567171;40;20056;-63
2022/12/28 08:56:22;;;;;;;6.30;3.33;;;;;;;9.74;87.89;100917.00;3565221;40;20112;-64
2022/12/28 08:58:49;;;;;;;6.95;3.03;;;;;;;9.72;88.34;100924.28;3568879;40;20134;-63
2022/12/28 09:01:30;;;;;;;6.78;3.50;;;;;;;9.70;88.51;100915.44;3570373;40;20068;-63
2022/12/28 09:03:58;;;;;;;4.57;2.90;;;;;;;9.52;88.59;100880.66;3569532;40;20057;-63
2022/12/28 09:06:33;;;;;;;4.43;3.05;;;;;;;9.76;88.53;100912.41;3569768;40;20076;-63
2022/12/28 09:09:01;;;;;;;4.57;2.70;;;;;;;9.75;88.63;100913.34;3569280;40;20071;-62
2022/12/28 09:11:26;;;;;;;7.68;2.90;;;;;;;9.70;88.26;100916.28;3571389;40;20162;-64
2022/12/28 09:13:52;;;;;;;6.75;3.55;;;;;;;9.61;89.01;100889.09;3567094;40;20673;-64
2022/12/28 09:16:24;;;;;;;6.75;3.03;;;;;;;9.73;88.43;100920.63;3565700;40;20064;-64
2022/12/28 09:18:58;;;;;;;6.45;3.05;;;;;;;9.72;89.30;100924.28;3565694;40;20292;-65
2022/12/28 09:21:29;;;;;;;4.70;2.83;;;;;;;9.46;89.09;100861.34;3567574;40;20319;-65
2022/12/28 09:23:55;;;;;;;8.10;3.35;;;;;;;9.72;89.29;100926.94;3566745;40;20065;-65
2022/12/28 09:26:25;;;;;;;5.35;2.85;;;;;;;9.61;89.03;100895.38;3565097;40;20087;-65
2022/12/28 09:28:54;;;;;;;3.45;2.70;;;;;;;9.75;88.76;100914.22;3567446;40;20044;-64
2022/12/28 09:31:23;;;;;;;8.80;3.22;;;;;;;9.78;89.10;100913.19;3568448;40;20056;-64
2022/12/28 09:33:59;;;;;;;6.38;2.78;;;;;;;9.71;88.66;100899.25;3566034;40;20125;-66
2022/12/28 09:36:31;;;;;;;5.43;2.40;;;;;;;9.82;88.54;100909.38;3567080;40;20443;-66
2022/12/28 09:39:01;;;;;;;4.03;2.30;;;;;;;9.85;88.33;100919.94;3566393;40;20053;-66
2022/12/28 09:41:35;;;;;;;3.35;2.25;;;;;;;9.87;88.08;100912.66;3565458;40;20099;-66
2022/12/28 09:44:26;;;;;;;2.42;1.83;;;;;;;9.88;88.12;100908.16;3558100;40;20056;-65
2022/12/28 09:47:16;;;;;;;2.40;2.20;;;;;;;9.90;88.14;100915.16;3566329;40;20397;-66
2022/12/28 09:50:23;;;;;;;4.55;2.45;;;;;;;9.93;87.18;100912.31;3564438;40;20061;-65
2022/12/28 09:53:20;;;;;;;5.13;2.47;;;;;;;9.93;87.30;100906.94;3564850;40;20049;-65
2022/12/28 09:56:50;;;;;;;6.43;2.25;;;;;;;9.98;86.99;100912.88;3565346;40;20114;-65
2022/12/28 09:59:23;;;;;;;2.45;2.05;;;;;;;9.96;87.63;100906.75;3526772;40;20050;-66
2022/12/28 10:02:02;;;;;;;3.97;1.92;;;;;;;9.96;87.92;100911.28;3557716;40;20123;-66
2022/12/28 10:04:28;;;;;;;4.22;2.10;;;;;;;9.89;87.78;100904.50;3564349;40;20061;-66
2022/12/28 10:06:53;;;;;;;2.65;1.90;;;;;;;9.98;87.73;100906.66;3567439;40;20360;-66
2022/12/28 10:09:32;;;;;;;2.30;1.70;;;;;;;9.96;87.91;100909.44;3565116;40;20059;-66
2022/12/28 10:12:13;;;;;;;2.22;1.50;;;;;;;9.98;88.15;100906.66;3563565;40;20053;-66
2022/12/28 10:14:40;;;;;;;2.88;1.90;;;;;;;9.98;87.89;100899.47;3563926;40;20090;-67
2022/12/28 10:17:06;;;;;;;3.53;2.13;;;;;;;9.98;88.02;100895.91;3563788;40;20049;-66
2022/12/28 10:19:32;;;;;;;3.50;2.20;;;;;;;9.98;88.45;100896.78;3566108;40;20085;-66
2022/12/28 10:22:02;;;;;;;2.42;1.98;;;;;;;9.99;88.12;100898.53;3566383;40;20064;-66
2022/12/28 10:24:29;;;;;;;3.15;2.22;;;;;;;10.01;88.71;100893.06;3566945;40;20167;-67
2022/12/28 10:26:58;;;;;;;2.47;2.00;;;;;;;10.02;88.14;100893.91;3566431;40;20053;-66
2022/12/28 10:29:25;;;;;;;3.58;2.33;;;;;;;9.73;88.81;100848.16;3563782;40;20053;-66
2022/12/28 10:32:08;;;;;;;1.95;1.85;;;;;;;10.02;89.15;100888.53;3563498;40;20053;-67
2022/12/28 10:34:36;;;;;;;3.45;2.28;;;;;;;10.01;89.07;100890.38;3564773;40;20088;-67
2022/12/28 10:37:15;;;;;;;3.78;2.20;;;;;;;10.03;88.58;100887.59;3557894;40;20372;-67
2022/12/28 10:39:57;;;;;;;3.35;2.35;;;;;;;9.90;88.84;100866.84;3566223;40;20420;-67
2022/12/28 10:42:41;;;;;;;2.75;1.95;;;;;;;10.06;89.03;100882.06;3565770;40;20044;-67
2022/12/28 10:45:21;;;;;;;5.53;2.40;;;;;;;10.02;89.19;100883.16;3565531;40;20059;-67
2022/12/28 10:47:53;;;;;;;5.50;2.45;;;;;;;10.04;89.34;100865.16;3568264;40;20070;-66
2022/12/28 10:50:45;;;;;;;3.05;2.30;;;;;;;9.99;89.51;100885.09;3566941;40;20060;-66
2022/12/28 10:53:25;;;;;;;2.90;2.20;;;;;;;9.95;89.33;100878.16;3566098;40;20076;-67
2022/12/28 10:56:10;;;;;;;3.33;2.25;;;;;;;9.98;89.24;100875.28;3564362;40;20053;-66
2022/12/28 10:58:38;;;;;;;4.43;2.55;;;;;;;10.00;89.47;100867.16;3565789;40;20312;-67
2022/12/28 11:01:22;;;;;;;3.80;2.30;;;;;;;10.02;89.80;100861.69;3568132;40;20052;-67
2022/12/28 11:04:04;;;;;;;;;;;;;;;9.98;89.60;100869.94;3563117;40;20648;-66
2022/12/28 11:06:49;;;;;;;3.50;2.33;;;;;;;9.95;89.44;100859.38;3562814;40;20014;-67
2022/12/28 11:09:20;;;;;;;3.03;2.45;;;;;;;9.98;89.25;100867.25;3564273;40;20057;-66
2022/12/28 11:11:48;;;;;;;4.15;2.55;;;;;;;9.92;89.54;100856.00;3564125;40;20056;-66
2022/12/28 11:14:32;;;;;;;6.53;2.95;;;;;;;9.98;89.48;100856.50;3565276;40;20057;-66
2022/12/28 11:17:19;;;;;;;4.00;2.30;;;;;;;10.03;89.61;100868.81;3562908;40;20061;-66
2022/12/28 11:19:54;;;;;;;5.65;2.80;;;;;;;9.99;88.95;100860.06;3564973;40;20049;-65
2022/12/28 11:22:26;;;;;;;4.57;2.65;;;;;;;10.03;88.87;100860.75;3563620;40;20501;-65
2022/12/28 11:24:52;;;;;;;2.80;2.10;;;;;;;9.92;89.31;100843.44;3564925;40;20964;-66
2022/12/28 11:27:22;;;;;;;5.13;2.55;;;;;;;10.02;89.17;100850.94;3564142;40;20065;-68
2022/12/28 11:29:52;;;;;;;4.63;2.40;;;;;;;10.00;89.24;100848.38;3564462;40;20080;-66
2022/12/28 11:32:31;;;;;;;7.55;2.63;;;;;;;10.02;88.98;100841.06;3565273;40;20049;-66
2022/12/28 11:34:59;;;;;;;8.95;3.47;;;;;;;10.07;88.51;100838.13;3565885;40;20065;-67
2022/12/28 11:37:24;;;;;;;6.35;2.47;;;;;;;10.05;88.23;100824.78;3567413;40;20049;-67
2022/12/28 11:39:52;;;;;;;5.60;2.53;;;;;;;10.10;88.66;100832.56;3566651;40;20060;-67
2022/12/28 11:42:54;;;;;;;4.97;2.47;;;;;;;10.10;87.69;100813.75;3566230;40;20124;-68
2022/12/28 11:45:54;;;;;;;4.70;2.70;;;;;;;10.08;87.54;100808.47;3565327;40;20407;-67
2022/12/28 11:48:53;;;;;;;5.63;2.60;;;;;;;10.08;87.32;100810.28;3565331;40;20060;-67
2022/12/28 11:51:34;;;;;;;5.13;2.40;;;;;;;10.11;87.77;100810.97;3566129;40;20065;-67
2022/12/28 11:54:38;;;;;;;6.20;2.40;;;;;;;10.15;87.52;100796.44;3565677;40;20057;-67
2022/12/28 11:57:04;;;;;;;3.75;2.17;;;;;;;10.08;87.83;100799.56;3567262;40;20053;-68
2022/12/28 11:59:33;;;;;;;5.85;2.40;;;;;;;10.07;87.12;100769.16;3568786;40;20056;-67
2022/12/28 12:02:23;;;;;;;6.18;2.60;;;;;;;10.10;87.08;100794.97;3568102;40;20100;-67
2022/12/28 12:04:49;;;;;;;2.92;2.03;;;;;;;10.12;87.31;100785.00;3566151;40;20065;-66
2022/12/28 12:07:43;;;;;;;5.63;2.20;;;;;;;9.99;87.41;100758.88;3567537;40;20105;-66
2022/12/28 12:10:32;;;;;;;5.18;2.25;;;;;;;10.12;86.92;100782.31;3566584;40;20057;-66
2022/12/28 12:13:01;;;;;;;5.57;2.25;;;;;;;10.11;86.70;100759.94;3568065;40;20053;-65
2022/12/28 12:15:40;;;;;;;5.00;1.90;;;;;;;10.12;87.39;100766.22;3567255;40;20342;-66
2022/12/28 12:18:18;;;;;;;5.78;2.20;;;;;;;10.18;86.84;100765.78;3566760;40;20079;-66
2022/12/28 12:21:01;;;;;;;4.05;2.38;;;;;;;10.20;86.52;100758.53;3567495;40;20064;-66
2022/12/28 12:23:40;;;;;;;3.20;2.22;;;;;;;10.03;86.55;100734.53;3569774;40;20104;-66
2022/12/28 12:26:26;;;;;;;5.20;2.25;;;;;;;10.18;85.63;100749.69;3567632;40;20045;-66